RAM200N GMMN-KJFK
Flight info
| Callsign | RAM200N |
|---|---|
| Flight time | 7h 20m |
| Altitude | 38000 |
| Route | ODAXA UH899 IBALU DCT SUBAL DCT MANOX/M085F380 DCT 36N020W 39N030W 43N040W 44N050W DCT BOBTU DCT JAROM N56G LOMPI/N0498F380 N56G BRADD DCT PLYMM PARCH3 |
| Aircraft | B789/H-SDE1E2E3FGHIJ2J3J4J5M1RWXY/LB1D1 |
Departure
| Time | 2026-05-04 13:09 |
|---|---|
| Airport | Mohammed V International Airport (GMMN) |
Arrival
| Time | 2026-05-04 20:29 |
|---|---|
| Airport | John F. Kennedy International Airport (KJFK) |
| Time | Latitude | Longitude | Altitude | Speed | Heading |
|---|---|---|---|---|---|
| 2026-05-04 12:36 | 33.37622 | -7.58347 | 658 ft | 0 kts | 122° |
| 2026-05-04 12:56 | 33.37029 | -7.58161 | 659 ft | 0 kts | 75° |
| 2026-05-04 12:56 | 33.37622 | -7.58347 | 659 ft | 0 kts | 122° |
| 2026-05-04 13:00 | 33.36843 | -7.58247 | 659 ft | 0 kts | 121° |
| 2026-05-04 13:05 | 33.36843 | -7.58246 | 659 ft | 0 kts | 121° |
| 2026-05-04 13:05 | 33.36840 | -7.58240 | 659 ft | 1 kts | 121° |
| 2026-05-04 13:06 | 33.36832 | -7.58223 | 659 ft | 3 kts | 118° |
| 2026-05-04 13:06 | 33.36833 | -7.58204 | 659 ft | 1 kts | 80° |
| 2026-05-04 13:06 | 33.36848 | -7.58190 | 658 ft | 4 kts | 28° |
| 2026-05-04 13:06 | 33.36895 | -7.58185 | 659 ft | 9 kts | 353° |
| 2026-05-04 13:07 | 33.36933 | -7.58225 | 659 ft | 6 kts | 288° |
| 2026-05-04 13:07 | 33.36929 | -7.58289 | 659 ft | 11 kts | 261° |
| 2026-05-04 13:07 | 33.36909 | -7.58385 | 659 ft | 13 kts | 255° |
| 2026-05-04 13:07 | 33.36858 | -7.58449 | 659 ft | 10 kts | 193° |
| 2026-05-04 13:08 | 33.36787 | -7.58438 | 659 ft | 11 kts | 166° |
| 2026-05-04 13:08 | 33.35208 | -7.58258 | 660 ft | 1 kts | 344° |
| 2026-05-04 13:08 | 33.35217 | -7.58261 | 660 ft | 2 kts | 342° |
| 2026-05-04 13:08 | 33.35271 | -7.58280 | 659 ft | 18 kts | 343° |
| 2026-05-04 13:09 | 33.35631 | -7.58402 | 656 ft | 95 kts | 345° |
| 2026-05-04 13:09 | 33.36519 | -7.58687 | 680 ft | 163 kts | 344° |
| 2026-05-04 13:09 | 33.37645 | -7.59141 | 1377 ft | 171 kts | 339° |
| 2026-05-04 13:09 | 33.38768 | -7.59528 | 2484 ft | 172 kts | 346° |
| 2026-05-04 13:10 | 33.40041 | -7.60067 | 2752 ft | 212 kts | 338° |
| 2026-05-04 13:10 | 33.41436 | -7.60936 | 3426 ft | 232 kts | 329° |
| 2026-05-04 13:10 | 33.42776 | -7.62064 | 4516 ft | 238 kts | 321° |
| 2026-05-04 13:10 | 33.43993 | -7.63424 | 5667 ft | 240 kts | 312° |
| 2026-05-04 13:11 | 33.45043 | -7.64984 | 6820 ft | 241 kts | 303° |
| 2026-05-04 13:11 | 33.45964 | -7.66678 | 7900 ft | 246 kts | 301° |
| 2026-05-04 13:11 | 33.46913 | -7.68402 | 8932 ft | 250 kts | 301° |
| 2026-05-04 13:11 | 33.47877 | -7.70167 | 9964 ft | 256 kts | 301° |
| 2026-05-04 13:12 | 33.48854 | -7.71968 | 10914 ft | 259 kts | 300° |
| 2026-05-04 13:12 | 33.49843 | -7.73789 | 11900 ft | 262 kts | 300° |
| 2026-05-04 13:12 | 33.50843 | -7.75629 | 12909 ft | 265 kts | 300° |
| 2026-05-04 13:12 | 33.51855 | -7.77491 | 13903 ft | 268 kts | 300° |
| 2026-05-04 13:13 | 33.52875 | -7.79372 | 14804 ft | 270 kts | 300° |
| 2026-05-04 13:13 | 33.53904 | -7.81268 | 15718 ft | 272 kts | 299° |
| 2026-05-04 13:13 | 33.54940 | -7.83179 | 16613 ft | 275 kts | 299° |
| 2026-05-04 13:13 | 33.55987 | -7.85112 | 17500 ft | 278 kts | 298° |
| 2026-05-04 13:14 | 33.57041 | -7.87060 | 18409 ft | 280 kts | 298° |
| 2026-05-04 13:14 | 33.58109 | -7.88995 | 19152 ft | 284 kts | 303° |
| 2026-05-04 13:14 | 33.59600 | -7.90660 | 19807 ft | 300 kts | 317° |
| 2026-05-04 13:14 | 33.61351 | -7.92158 | 20148 ft | 319 kts | 319° |
| 2026-05-04 13:15 | 33.63241 | -7.93709 | 20421 ft | 339 kts | 320° |
| 2026-05-04 13:15 | 33.65241 | -7.95370 | 20666 ft | 360 kts | 319° |
| 2026-05-04 13:15 | 33.67343 | -7.97148 | 20879 ft | 380 kts | 319° |
| 2026-05-04 13:15 | 33.69509 | -7.98976 | 21386 ft | 390 kts | 319° |
| 2026-05-04 13:16 | 33.71752 | -8.00856 | 22038 ft | 396 kts | 319° |
| 2026-05-04 13:16 | 33.74054 | -8.02790 | 22736 ft | 401 kts | 319° |
| 2026-05-04 13:16 | 33.76315 | -8.04699 | 23433 ft | 405 kts | 319° |
| 2026-05-04 13:16 | 33.78628 | -8.06653 | 24044 ft | 408 kts | 319° |
| 2026-05-04 13:17 | 33.80964 | -8.08623 | 24616 ft | 412 kts | 319° |
| 2026-05-04 13:17 | 33.83314 | -8.10606 | 25191 ft | 414 kts | 319° |
| 2026-05-04 13:17 | 33.85679 | -8.12606 | 25755 ft | 417 kts | 319° |
| 2026-05-04 13:17 | 33.88065 | -8.14625 | 26330 ft | 420 kts | 319° |
| 2026-05-04 13:18 | 33.90459 | -8.16651 | 26872 ft | 423 kts | 319° |
| 2026-05-04 13:18 | 33.92872 | -8.18695 | 27416 ft | 425 kts | 318° |
| 2026-05-04 13:18 | 33.95297 | -8.20749 | 27959 ft | 428 kts | 318° |
| 2026-05-04 13:18 | 33.97738 | -8.22820 | 28497 ft | 430 kts | 318° |
| 2026-05-04 13:19 | 34.00065 | -8.25057 | 29013 ft | 426 kts | 310° |
| 2026-05-04 13:19 | 34.02167 | -8.27569 | 29518 ft | 427 kts | 309° |
| 2026-05-04 13:19 | 34.04281 | -8.30107 | 30024 ft | 430 kts | 309° |
| 2026-05-04 13:19 | 34.06399 | -8.32660 | 30457 ft | 432 kts | 309° |
| 2026-05-04 13:20 | 34.08531 | -8.35235 | 30853 ft | 435 kts | 309° |
| 2026-05-04 13:20 | 34.10673 | -8.37820 | 31235 ft | 437 kts | 309° |
| 2026-05-04 13:20 | 34.12833 | -8.40428 | 31606 ft | 440 kts | 308° |
| 2026-05-04 13:20 | 34.15003 | -8.43051 | 31970 ft | 443 kts | 308° |
| 2026-05-04 13:21 | 34.17184 | -8.45690 | 32322 ft | 446 kts | 308° |
| 2026-05-04 13:21 | 34.19382 | -8.48355 | 32671 ft | 448 kts | 308° |
| 2026-05-04 13:21 | 34.21583 | -8.51031 | 33007 ft | 451 kts | 308° |
| 2026-05-04 13:21 | 34.23803 | -8.53729 | 33327 ft | 453 kts | 308° |
| 2026-05-04 13:22 | 34.26032 | -8.56439 | 33664 ft | 456 kts | 308° |
| 2026-05-04 13:22 | 34.28266 | -8.59156 | 34124 ft | 455 kts | 308° |
| 2026-05-04 13:22 | 34.30492 | -8.61865 | 34558 ft | 454 kts | 308° |
| 2026-05-04 13:22 | 34.32712 | -8.64573 | 34996 ft | 452 kts | 308° |
| 2026-05-04 13:23 | 34.34918 | -8.67266 | 35428 ft | 450 kts | 308° |
| 2026-05-04 13:23 | 34.37121 | -8.69956 | 35861 ft | 449 kts | 308° |
| 2026-05-04 13:23 | 34.39317 | -8.72638 | 36288 ft | 448 kts | 307° |
| 2026-05-04 13:23 | 34.41499 | -8.75312 | 36661 ft | 446 kts | 306° |
| 2026-05-04 13:24 | 34.43464 | -8.78162 | 37056 ft | 437 kts | 298° |
| 2026-05-04 13:24 | 34.45061 | -8.81253 | 37452 ft | 429 kts | 291° |
| 2026-05-04 13:24 | 34.46289 | -8.84516 | 37847 ft | 423 kts | 286° |
| 2026-05-04 13:25 | 34.48502 | -8.91164 | 38115 ft | 428 kts | 287° |
| 2026-05-04 13:25 | 34.49599 | -8.94491 | 38117 ft | 424 kts | 287° |
| 2026-05-04 13:25 | 34.51783 | -9.01137 | 38120 ft | 425 kts | 287° |
| 2026-05-04 13:26 | 34.53958 | -9.07743 | 38117 ft | 425 kts | 287° |
| 2026-05-04 13:26 | 34.56140 | -9.14398 | 38124 ft | 424 kts | 287° |
| 2026-05-04 13:27 | 34.58320 | -9.21054 | 38119 ft | 424 kts | 287° |
| 2026-05-04 13:27 | 34.60494 | -9.27711 | 38124 ft | 424 kts | 287° |
| 2026-05-04 13:28 | 34.62663 | -9.34368 | 38122 ft | 424 kts | 287° |
| 2026-05-04 13:28 | 34.64828 | -9.41023 | 38130 ft | 424 kts | 287° |
| 2026-05-04 13:29 | 34.66990 | -9.47685 | 38136 ft | 424 kts | 287° |
| 2026-05-04 13:29 | 34.69149 | -9.54353 | 38138 ft | 424 kts | 287° |
| 2026-05-04 13:30 | 34.71303 | -9.61023 | 38136 ft | 424 kts | 287° |
| 2026-05-04 13:30 | 34.73456 | -9.67701 | 38141 ft | 424 kts | 287° |
| 2026-05-04 13:31 | 34.75602 | -9.74374 | 38135 ft | 424 kts | 287° |
| 2026-05-04 13:31 | 34.77747 | -9.81054 | 38144 ft | 424 kts | 287° |
| 2026-05-04 13:32 | 34.79885 | -9.87733 | 38146 ft | 424 kts | 287° |
| 2026-05-04 13:32 | 34.82020 | -9.94416 | 38141 ft | 424 kts | 286° |
| 2026-05-04 13:33 | 34.84152 | -10.01103 | 38144 ft | 424 kts | 286° |
| 2026-05-04 13:33 | 34.86279 | -10.07789 | 38142 ft | 424 kts | 286° |
| 2026-05-04 13:34 | 34.88404 | -10.14485 | 38146 ft | 424 kts | 286° |
| 2026-05-04 13:34 | 34.90525 | -10.21183 | 38144 ft | 424 kts | 286° |
| 2026-05-04 13:35 | 34.93699 | -10.31237 | 38147 ft | 424 kts | 286° |
| 2026-05-04 13:36 | 34.95797 | -10.37898 | 38146 ft | 424 kts | 286° |
| 2026-05-04 13:36 | 34.97904 | -10.44606 | 38145 ft | 424 kts | 286° |
| 2026-05-04 13:37 | 35.00010 | -10.51324 | 38144 ft | 424 kts | 286° |
| 2026-05-04 13:37 | 35.02116 | -10.58058 | 38147 ft | 425 kts | 286° |
| 2026-05-04 13:38 | 35.04218 | -10.64795 | 38150 ft | 425 kts | 286° |
| 2026-05-04 13:38 | 35.06317 | -10.71537 | 38151 ft | 425 kts | 286° |
| 2026-05-04 13:39 | 35.08415 | -10.78291 | 38151 ft | 425 kts | 286° |
| 2026-05-04 13:39 | 35.10508 | -10.85045 | 38152 ft | 425 kts | 286° |
| 2026-05-04 13:40 | 35.12600 | -10.91811 | 38155 ft | 426 kts | 286° |
| 2026-05-04 13:40 | 35.14688 | -10.98579 | 38134 ft | 426 kts | 286° |
| 2026-05-04 13:41 | 35.16772 | -11.05353 | 38140 ft | 426 kts | 286° |
| 2026-05-04 13:41 | 35.18851 | -11.12124 | 38148 ft | 426 kts | 286° |
| 2026-05-04 13:42 | 35.21952 | -11.22252 | 38146 ft | 426 kts | 286° |
| 2026-05-04 13:42 | 35.24024 | -11.29040 | 38150 ft | 426 kts | 286° |
| 2026-05-04 13:43 | 35.26094 | -11.35837 | 38168 ft | 426 kts | 286° |
| 2026-05-04 13:43 | 35.28162 | -11.42645 | 38165 ft | 427 kts | 286° |
| 2026-05-04 13:44 | 35.30229 | -11.49464 | 38154 ft | 427 kts | 286° |
| 2026-05-04 13:44 | 35.32293 | -11.56289 | 38159 ft | 428 kts | 286° |
| 2026-05-04 13:45 | 35.34355 | -11.63125 | 38166 ft | 428 kts | 286° |
| 2026-05-04 13:45 | 35.36416 | -11.69971 | 38166 ft | 428 kts | 286° |
| 2026-05-04 13:46 | 35.38473 | -11.76822 | 38164 ft | 429 kts | 286° |
| 2026-05-04 13:46 | 35.40529 | -11.83688 | 38163 ft | 429 kts | 286° |
| 2026-05-04 13:47 | 35.42584 | -11.90565 | 38166 ft | 430 kts | 286° |
| 2026-05-04 13:47 | 35.44622 | -11.97401 | 38167 ft | 430 kts | 286° |
| 2026-05-04 13:48 | 35.46671 | -12.04292 | 38163 ft | 430 kts | 286° |
| 2026-05-04 13:48 | 35.48718 | -12.11192 | 38169 ft | 430 kts | 286° |
| 2026-05-04 13:49 | 35.50762 | -12.18100 | 38169 ft | 431 kts | 286° |
| 2026-05-04 13:49 | 35.52804 | -12.25018 | 38165 ft | 432 kts | 286° |
| 2026-05-04 13:50 | 35.54805 | -12.31970 | 38172 ft | 430 kts | 281° |
| 2026-05-04 13:50 | 35.56390 | -12.39051 | 38170 ft | 431 kts | 282° |
| 2026-05-04 13:51 | 35.57987 | -12.46154 | 38165 ft | 431 kts | 282° |
| 2026-05-04 13:51 | 35.59571 | -12.53267 | 38165 ft | 432 kts | 282° |
| 2026-05-04 13:52 | 35.61684 | -12.62755 | 38175 ft | 433 kts | 282° |
| 2026-05-04 13:53 | 35.63266 | -12.69886 | 38173 ft | 433 kts | 282° |
| 2026-05-04 13:53 | 35.64843 | -12.77022 | 38173 ft | 433 kts | 282° |
| 2026-05-04 13:54 | 35.67205 | -12.87744 | 38177 ft | 433 kts | 282° |
| 2026-05-04 13:55 | 35.69558 | -12.98482 | 38178 ft | 433 kts | 282° |
| 2026-05-04 13:55 | 35.71904 | -13.09229 | 38182 ft | 434 kts | 282° |
| 2026-05-04 13:56 | 35.73462 | -13.16400 | 38177 ft | 434 kts | 282° |
| 2026-05-04 13:57 | 35.75786 | -13.27131 | 38180 ft | 435 kts | 282° |
| 2026-05-04 13:58 | 35.78885 | -13.41523 | 38183 ft | 435 kts | 282° |
| 2026-05-04 13:58 | 35.81202 | -13.52347 | 38183 ft | 436 kts | 282° |
| 2026-05-04 13:59 | 35.82742 | -13.59568 | 38184 ft | 436 kts | 282° |
| 2026-05-04 14:00 | 35.85046 | -13.70412 | 38185 ft | 436 kts | 282° |
| 2026-05-04 14:00 | 35.87342 | -13.81274 | 38183 ft | 437 kts | 282° |
| 2026-05-04 14:01 | 35.88869 | -13.88526 | 38187 ft | 437 kts | 282° |
| 2026-05-04 14:02 | 35.91150 | -13.99403 | 38181 ft | 437 kts | 282° |
| 2026-05-04 14:02 | 35.92666 | -14.06660 | 38184 ft | 437 kts | 282° |
| 2026-05-04 14:03 | 35.94179 | -14.13930 | 38185 ft | 437 kts | 282° |
| 2026-05-04 14:03 | 35.95668 | -14.21107 | 38192 ft | 438 kts | 282° |
| 2026-05-04 14:04 | 35.97882 | -14.31822 | 38191 ft | 438 kts | 282° |
| 2026-05-04 14:04 | 35.99384 | -14.39117 | 38187 ft | 438 kts | 282° |
| 2026-05-04 14:05 | 36.01618 | -14.50019 | 38195 ft | 439 kts | 282° |
| 2026-05-04 14:06 | 36.03110 | -14.57329 | 38192 ft | 439 kts | 282° |
| 2026-05-04 14:06 | 36.04598 | -14.64644 | 38190 ft | 439 kts | 282° |
| 2026-05-04 14:07 | 36.06084 | -14.71973 | 38191 ft | 440 kts | 282° |
| 2026-05-04 14:07 | 36.07566 | -14.79309 | 38191 ft | 440 kts | 282° |
| 2026-05-04 14:08 | 36.09045 | -14.86655 | 38194 ft | 440 kts | 282° |
| 2026-05-04 14:08 | 36.10521 | -14.94011 | 38192 ft | 441 kts | 282° |
| 2026-05-04 14:09 | 36.12726 | -15.05043 | 38196 ft | 440 kts | 282° |
| 2026-05-04 14:10 | 36.14919 | -15.16073 | 38192 ft | 440 kts | 282° |
| 2026-05-04 14:10 | 36.16378 | -15.23445 | 38198 ft | 441 kts | 282° |
| 2026-05-04 14:11 | 36.17831 | -15.30812 | 38197 ft | 441 kts | 282° |
| 2026-05-04 14:11 | 36.20552 | -15.41671 | 38206 ft | 445 kts | 295° |
| 2026-05-04 14:12 | 36.23379 | -15.48498 | 38205 ft | 445 kts | 294° |
| 2026-05-04 14:13 | 36.27626 | -15.58728 | 38207 ft | 445 kts | 294° |
| 2026-05-04 14:13 | 36.30448 | -15.65562 | 38201 ft | 445 kts | 294° |
| 2026-05-04 14:14 | 36.33271 | -15.72400 | 38207 ft | 446 kts | 294° |
| 2026-05-04 14:14 | 36.37499 | -15.82675 | 38208 ft | 446 kts | 294° |
| 2026-05-04 14:15 | 36.43120 | -15.96388 | 38192 ft | 446 kts | 294° |
| 2026-05-04 14:16 | 36.47307 | -16.06639 | 38195 ft | 446 kts | 294° |
| 2026-05-04 14:17 | 36.51505 | -16.16948 | 38202 ft | 446 kts | 294° |
| 2026-05-04 14:18 | 36.55693 | -16.27269 | 38202 ft | 446 kts | 294° |
| 2026-05-04 14:19 | 36.61266 | -16.41053 | 38213 ft | 446 kts | 294° |
| 2026-05-04 14:19 | 36.64047 | -16.47953 | 38212 ft | 446 kts | 294° |
| 2026-05-04 14:20 | 36.66827 | -16.54865 | 38213 ft | 446 kts | 294° |
| 2026-05-04 14:20 | 36.69602 | -16.61779 | 38213 ft | 446 kts | 294° |
| 2026-05-04 14:21 | 36.73755 | -16.72158 | 38212 ft | 446 kts | 294° |
| 2026-05-04 14:21 | 36.76520 | -16.79085 | 38215 ft | 446 kts | 294° |
| 2026-05-04 14:22 | 36.79279 | -16.86014 | 38214 ft | 446 kts | 294° |
| 2026-05-04 14:22 | 36.82038 | -16.92957 | 38214 ft | 446 kts | 294° |
| 2026-05-04 14:23 | 36.86166 | -17.03372 | 38216 ft | 446 kts | 294° |
| 2026-05-04 14:24 | 36.88912 | -17.10321 | 38213 ft | 446 kts | 294° |
| 2026-05-04 14:24 | 36.91637 | -17.17231 | 38219 ft | 446 kts | 294° |
| 2026-05-04 14:25 | 36.94374 | -17.24186 | 38216 ft | 446 kts | 294° |
| 2026-05-04 14:25 | 36.98479 | -17.34646 | 38223 ft | 447 kts | 294° |
| 2026-05-04 14:26 | 37.01206 | -17.41615 | 38225 ft | 446 kts | 294° |
| 2026-05-04 14:26 | 37.03936 | -17.48606 | 38224 ft | 446 kts | 294° |
| 2026-05-04 14:27 | 37.06657 | -17.55591 | 38226 ft | 447 kts | 294° |
| 2026-05-04 14:27 | 37.09375 | -17.62583 | 38225 ft | 446 kts | 294° |
| 2026-05-04 14:28 | 37.12087 | -17.69575 | 38226 ft | 447 kts | 293° |
| 2026-05-04 14:29 | 37.20260 | -17.90742 | 38226 ft | 447 kts | 293° |
| 2026-05-04 14:30 | 37.22959 | -17.97763 | 38232 ft | 447 kts | 293° |
| 2026-05-04 14:31 | 37.27001 | -18.08308 | 38226 ft | 447 kts | 293° |
| 2026-05-04 14:32 | 37.32379 | -18.22396 | 38235 ft | 448 kts | 293° |
| 2026-05-04 14:32 | 37.35067 | -18.29460 | 38232 ft | 448 kts | 293° |
| 2026-05-04 14:33 | 37.37750 | -18.36526 | 38231 ft | 448 kts | 293° |
| 2026-05-04 14:33 | 37.40424 | -18.43587 | 38236 ft | 448 kts | 293° |
| 2026-05-04 14:34 | 37.43098 | -18.50663 | 38237 ft | 448 kts | 293° |
| 2026-05-04 14:34 | 37.45768 | -18.57744 | 38240 ft | 448 kts | 293° |
| 2026-05-04 14:35 | 37.47986 | -18.63641 | 38239 ft | 448 kts | 293° |
| 2026-05-04 14:35 | 37.50652 | -18.70741 | 38239 ft | 448 kts | 293° |
| 2026-05-04 14:36 | 37.53313 | -18.77847 | 38240 ft | 449 kts | 293° |
| 2026-05-04 14:36 | 37.55971 | -18.84957 | 38243 ft | 449 kts | 293° |
| 2026-05-04 14:37 | 37.58625 | -18.92076 | 38241 ft | 449 kts | 293° |
| 2026-05-04 14:37 | 37.61276 | -18.99203 | 38240 ft | 449 kts | 293° |
| 2026-05-04 14:38 | 37.63923 | -19.06337 | 38242 ft | 449 kts | 293° |
| 2026-05-04 14:38 | 37.66570 | -19.13484 | 38248 ft | 449 kts | 293° |
| 2026-05-04 14:39 | 37.69207 | -19.20625 | 38246 ft | 449 kts | 293° |
| 2026-05-04 14:39 | 37.71844 | -19.27781 | 38248 ft | 449 kts | 293° |
| 2026-05-04 14:40 | 37.75778 | -19.38487 | 38250 ft | 450 kts | 292° |
| 2026-05-04 14:40 | 37.78408 | -19.45666 | 38251 ft | 450 kts | 292° |
| 2026-05-04 14:41 | 37.81038 | -19.52862 | 38251 ft | 451 kts | 292° |
| 2026-05-04 14:42 | 37.86288 | -19.67277 | 38250 ft | 451 kts | 292° |
| 2026-05-04 14:42 | 37.88909 | -19.74501 | 38255 ft | 452 kts | 292° |
| 2026-05-04 14:43 | 37.91528 | -19.81735 | 38253 ft | 452 kts | 292° |
| 2026-05-04 14:43 | 37.94141 | -19.88972 | 38250 ft | 452 kts | 292° |
| 2026-05-04 14:44 | 37.96755 | -19.96226 | 38255 ft | 452 kts | 292° |
| 2026-05-04 14:44 | 37.99362 | -20.03479 | 38259 ft | 453 kts | 292° |
| 2026-05-04 14:45 | 38.01968 | -20.10750 | 38257 ft | 453 kts | 292° |
| 2026-05-04 14:45 | 38.04573 | -20.18032 | 38261 ft | 453 kts | 292° |
| 2026-05-04 14:46 | 38.07172 | -20.25316 | 38259 ft | 453 kts | 292° |
| 2026-05-04 14:46 | 38.09769 | -20.32614 | 38259 ft | 454 kts | 292° |
| 2026-05-04 14:47 | 38.12362 | -20.39918 | 38264 ft | 454 kts | 292° |
| 2026-05-04 14:47 | 38.14952 | -20.47231 | 38261 ft | 454 kts | 292° |
| 2026-05-04 14:48 | 38.17543 | -20.54564 | 38260 ft | 455 kts | 292° |
| 2026-05-04 14:48 | 38.20128 | -20.61898 | 38263 ft | 455 kts | 292° |
| 2026-05-04 14:49 | 38.22695 | -20.69199 | 38264 ft | 455 kts | 292° |
| 2026-05-04 14:49 | 38.25275 | -20.76557 | 38263 ft | 456 kts | 292° |
| 2026-05-04 14:50 | 38.27850 | -20.83919 | 38266 ft | 456 kts | 292° |
| 2026-05-04 14:50 | 38.30424 | -20.91295 | 38269 ft | 456 kts | 292° |
| 2026-05-04 14:51 | 38.32995 | -20.98682 | 38268 ft | 457 kts | 292° |
| 2026-05-04 14:51 | 38.35568 | -21.06094 | 38268 ft | 457 kts | 292° |
| 2026-05-04 14:52 | 38.38136 | -21.13507 | 38272 ft | 458 kts | 292° |
| 2026-05-04 14:52 | 38.40705 | -21.20944 | 38272 ft | 458 kts | 292° |
| 2026-05-04 14:53 | 38.43269 | -21.28386 | 38271 ft | 458 kts | 292° |
| 2026-05-04 14:53 | 38.45830 | -21.35838 | 38276 ft | 459 kts | 292° |
| 2026-05-04 14:54 | 38.48389 | -21.43302 | 38273 ft | 459 kts | 292° |
| 2026-05-04 14:54 | 38.50946 | -21.50779 | 38277 ft | 460 kts | 292° |
| 2026-05-04 14:55 | 38.53501 | -21.58272 | 38280 ft | 460 kts | 292° |
| 2026-05-04 14:55 | 38.56054 | -21.65777 | 38278 ft | 461 kts | 292° |
| 2026-05-04 14:56 | 38.58587 | -21.73242 | 38279 ft | 461 kts | 292° |
| 2026-05-04 14:56 | 38.61135 | -21.80771 | 38277 ft | 461 kts | 291° |
| 2026-05-04 14:57 | 38.63678 | -21.88305 | 38283 ft | 462 kts | 292° |
| 2026-05-04 14:57 | 38.66215 | -21.95842 | 38284 ft | 462 kts | 292° |
| 2026-05-04 14:58 | 38.68751 | -22.03395 | 38284 ft | 462 kts | 291° |
| 2026-05-04 14:58 | 38.71282 | -22.10953 | 38284 ft | 462 kts | 291° |
| 2026-05-04 14:59 | 38.73810 | -22.18519 | 38282 ft | 462 kts | 291° |
| 2026-05-04 15:00 | 38.77595 | -22.29890 | 38287 ft | 463 kts | 291° |
| 2026-05-04 15:00 | 38.80115 | -22.37484 | 38289 ft | 463 kts | 291° |
| 2026-05-04 15:01 | 38.83886 | -22.48888 | 38292 ft | 463 kts | 291° |
| 2026-05-04 15:01 | 38.86397 | -22.56505 | 38284 ft | 464 kts | 291° |
| 2026-05-04 15:02 | 38.88900 | -22.64119 | 38277 ft | 463 kts | 291° |
| 2026-05-04 15:02 | 38.91401 | -22.71749 | 38286 ft | 464 kts | 291° |
| 2026-05-04 15:03 | 38.93897 | -22.79383 | 38292 ft | 464 kts | 291° |
| 2026-05-04 15:03 | 38.96390 | -22.87030 | 38294 ft | 464 kts | 291° |
| 2026-05-04 15:04 | 38.98864 | -22.94636 | 38296 ft | 465 kts | 291° |
| 2026-05-04 15:04 | 39.01350 | -23.02300 | 38290 ft | 465 kts | 291° |
| 2026-05-04 15:05 | 39.03835 | -23.09984 | 38294 ft | 465 kts | 291° |
| 2026-05-04 15:05 | 39.06314 | -23.17672 | 38295 ft | 466 kts | 291° |
| 2026-05-04 15:06 | 39.08792 | -23.25374 | 38302 ft | 466 kts | 291° |
| 2026-05-04 15:07 | 39.12498 | -23.36934 | 38308 ft | 466 kts | 291° |
| 2026-05-04 15:07 | 39.14965 | -23.44656 | 38298 ft | 466 kts | 291° |
| 2026-05-04 15:08 | 39.17429 | -23.52391 | 38305 ft | 467 kts | 291° |
| 2026-05-04 15:08 | 39.19888 | -23.60131 | 38312 ft | 467 kts | 291° |
| 2026-05-04 15:09 | 39.22346 | -23.67889 | 38308 ft | 467 kts | 291° |
| 2026-05-04 15:09 | 39.24796 | -23.75645 | 38307 ft | 467 kts | 291° |
| 2026-05-04 15:10 | 39.28466 | -23.87302 | 38295 ft | 467 kts | 291° |
| 2026-05-04 15:11 | 39.32122 | -23.98963 | 38301 ft | 467 kts | 291° |
| 2026-05-04 15:11 | 39.34555 | -24.06751 | 38299 ft | 468 kts | 291° |
| 2026-05-04 15:12 | 39.36985 | -24.14552 | 38316 ft | 468 kts | 291° |
| 2026-05-04 15:12 | 39.39409 | -24.22357 | 38322 ft | 468 kts | 291° |
| 2026-05-04 15:13 | 39.41830 | -24.30173 | 38302 ft | 468 kts | 291° |
| 2026-05-04 15:13 | 39.44230 | -24.37945 | 38305 ft | 468 kts | 291° |
| 2026-05-04 15:14 | 39.46640 | -24.45769 | 38308 ft | 468 kts | 291° |
| 2026-05-04 15:14 | 39.49046 | -24.53605 | 38310 ft | 468 kts | 291° |
| 2026-05-04 15:15 | 39.51444 | -24.61436 | 38312 ft | 468 kts | 291° |
| 2026-05-04 15:15 | 39.53840 | -24.69284 | 38316 ft | 468 kts | 291° |
| 2026-05-04 15:16 | 39.57423 | -24.81062 | 38315 ft | 469 kts | 291° |
| 2026-05-04 15:17 | 39.60997 | -24.92858 | 38317 ft | 469 kts | 291° |
| 2026-05-04 15:17 | 39.64558 | -25.04668 | 38319 ft | 468 kts | 290° |
| 2026-05-04 15:18 | 39.66926 | -25.12547 | 38335 ft | 469 kts | 290° |
| 2026-05-04 15:19 | 39.70470 | -25.24385 | 38319 ft | 469 kts | 290° |
| 2026-05-04 15:19 | 39.74001 | -25.36231 | 38341 ft | 469 kts | 290° |
| 2026-05-04 15:20 | 39.76349 | -25.44139 | 38319 ft | 469 kts | 290° |
| 2026-05-04 15:20 | 39.78692 | -25.52054 | 38332 ft | 469 kts | 290° |
| 2026-05-04 15:21 | 39.81033 | -25.59986 | 38320 ft | 470 kts | 290° |
| 2026-05-04 15:22 | 39.84531 | -25.71879 | 38324 ft | 469 kts | 290° |
| 2026-05-04 15:22 | 39.88004 | -25.83742 | 38345 ft | 470 kts | 290° |
| 2026-05-04 15:23 | 39.89947 | -25.90400 | 38342 ft | 470 kts | 290° |
| 2026-05-04 15:23 | 39.92637 | -25.99649 | 38341 ft | 470 kts | 290° |
| 2026-05-04 15:24 | 39.96874 | -26.14285 | 38344 ft | 470 kts | 290° |
| 2026-05-04 15:25 | 39.99172 | -26.22254 | 38347 ft | 470 kts | 290° |
| 2026-05-04 15:26 | 40.02596 | -26.34176 | 38352 ft | 470 kts | 290° |
| 2026-05-04 15:26 | 40.06018 | -26.46145 | 38346 ft | 469 kts | 290° |
| 2026-05-04 15:27 | 40.09429 | -26.58132 | 38350 ft | 469 kts | 290° |
| 2026-05-04 15:28 | 40.12822 | -26.70112 | 38350 ft | 469 kts | 290° |
| 2026-05-04 15:29 | 40.16206 | -26.82113 | 38349 ft | 469 kts | 290° |
| 2026-05-04 15:30 | 40.24046 | -27.10138 | 38355 ft | 469 kts | 290° |
| 2026-05-04 15:31 | 40.27385 | -27.22169 | 38359 ft | 469 kts | 290° |
| 2026-05-04 15:32 | 40.32908 | -27.42191 | 38352 ft | 468 kts | 290° |
| 2026-05-04 15:34 | 40.38416 | -27.62318 | 38355 ft | 468 kts | 290° |
| 2026-05-04 15:34 | 40.41679 | -27.74319 | 38354 ft | 467 kts | 290° |
| 2026-05-04 15:35 | 40.44939 | -27.86364 | 38358 ft | 467 kts | 290° |
| 2026-05-04 15:36 | 40.48185 | -27.98420 | 38359 ft | 467 kts | 290° |
| 2026-05-04 15:36 | 40.50344 | -28.06467 | 38355 ft | 467 kts | 290° |
| 2026-05-04 15:37 | 40.52494 | -28.14509 | 38363 ft | 467 kts | 290° |
| 2026-05-04 15:37 | 40.54639 | -28.22557 | 38359 ft | 466 kts | 290° |
| 2026-05-04 15:38 | 40.56779 | -28.30615 | 38359 ft | 466 kts | 290° |
| 2026-05-04 15:38 | 40.58912 | -28.38667 | 38357 ft | 466 kts | 290° |
| 2026-05-04 15:39 | 40.61038 | -28.46724 | 38360 ft | 466 kts | 290° |
| 2026-05-04 15:40 | 40.64217 | -28.58818 | 38364 ft | 466 kts | 290° |
| 2026-05-04 15:40 | 40.66326 | -28.66877 | 38361 ft | 466 kts | 290° |
| 2026-05-04 15:41 | 40.68429 | -28.74937 | 38363 ft | 465 kts | 290° |
| 2026-05-04 15:41 | 40.70512 | -28.82947 | 38361 ft | 465 kts | 290° |
| 2026-05-04 15:42 | 40.72602 | -28.91013 | 38361 ft | 465 kts | 290° |
| 2026-05-04 15:42 | 40.74687 | -28.99082 | 38367 ft | 465 kts | 290° |
| 2026-05-04 15:43 | 40.76765 | -29.07154 | 38361 ft | 465 kts | 290° |
| 2026-05-04 15:43 | 40.78838 | -29.15231 | 38366 ft | 465 kts | 290° |
| 2026-05-04 15:44 | 40.80905 | -29.23314 | 38366 ft | 465 kts | 290° |
| 2026-05-04 15:44 | 40.82966 | -29.31401 | 38366 ft | 465 kts | 290° |
| 2026-05-04 15:45 | 40.85022 | -29.39495 | 38369 ft | 465 kts | 290° |
| 2026-05-04 15:45 | 40.87071 | -29.47588 | 38367 ft | 465 kts | 290° |
| 2026-05-04 15:46 | 40.89116 | -29.55690 | 38372 ft | 465 kts | 290° |
| 2026-05-04 15:46 | 40.91157 | -29.63806 | 38372 ft | 465 kts | 290° |
| 2026-05-04 15:47 | 40.93195 | -29.71938 | 38369 ft | 466 kts | 290° |
| 2026-05-04 15:47 | 40.95225 | -29.80068 | 38367 ft | 466 kts | 290° |
| 2026-05-04 15:48 | 40.97251 | -29.88207 | 38373 ft | 466 kts | 290° |
| 2026-05-04 15:48 | 41.00280 | -30.00431 | 38374 ft | 466 kts | 290° |
| 2026-05-04 15:49 | 41.02294 | -30.08590 | 38376 ft | 467 kts | 290° |
| 2026-05-04 15:49 | 41.04304 | -30.16765 | 38374 ft | 467 kts | 290° |
| 2026-05-04 15:50 | 41.06307 | -30.24936 | 38381 ft | 467 kts | 290° |
| 2026-05-04 15:50 | 41.08308 | -30.33132 | 38380 ft | 467 kts | 289° |
| 2026-05-04 15:51 | 41.10288 | -30.41269 | 38374 ft | 467 kts | 289° |
| 2026-05-04 15:51 | 41.12275 | -30.49465 | 38376 ft | 467 kts | 289° |
| 2026-05-04 15:52 | 41.14258 | -30.57671 | 38379 ft | 467 kts | 289° |
| 2026-05-04 15:52 | 41.16236 | -30.65886 | 38376 ft | 467 kts | 289° |
| 2026-05-04 15:53 | 41.18206 | -30.74097 | 38377 ft | 467 kts | 289° |
| 2026-05-04 15:53 | 41.20170 | -30.82313 | 38375 ft | 467 kts | 289° |
| 2026-05-04 15:54 | 41.22130 | -30.90540 | 38381 ft | 467 kts | 289° |
| 2026-05-04 15:54 | 41.24086 | -30.98780 | 38381 ft | 467 kts | 289° |
| 2026-05-04 15:55 | 41.26031 | -31.07004 | 38380 ft | 467 kts | 289° |
| 2026-05-04 15:55 | 41.27972 | -31.15240 | 38379 ft | 467 kts | 290° |
| 2026-05-04 15:56 | 41.29906 | -31.23477 | 38378 ft | 466 kts | 290° |
| 2026-05-04 15:56 | 41.31831 | -31.31707 | 38379 ft | 466 kts | 290° |
| 2026-05-04 15:57 | 41.33750 | -31.39938 | 38381 ft | 466 kts | 290° |
| 2026-05-04 15:57 | 41.35660 | -31.48161 | 38380 ft | 465 kts | 290° |
| 2026-05-04 15:58 | 41.37564 | -31.56393 | 38382 ft | 465 kts | 290° |
| 2026-05-04 15:58 | 41.39460 | -31.64613 | 38382 ft | 464 kts | 290° |
| 2026-05-04 15:59 | 41.41348 | -31.72834 | 38383 ft | 464 kts | 290° |
| 2026-05-04 15:59 | 41.43230 | -31.81058 | 38385 ft | 464 kts | 290° |
| 2026-05-04 16:00 | 41.45107 | -31.89289 | 38384 ft | 464 kts | 290° |
| 2026-05-04 16:00 | 41.46976 | -31.97517 | 38380 ft | 464 kts | 290° |
| 2026-05-04 16:01 | 41.48840 | -32.05752 | 38385 ft | 463 kts | 290° |
| 2026-05-04 16:01 | 41.50696 | -32.13984 | 38382 ft | 463 kts | 291° |
| 2026-05-04 16:02 | 41.52530 | -32.22143 | 38382 ft | 460 kts | 291° |
| 2026-05-04 16:03 | 41.55287 | -32.34474 | 38395 ft | 463 kts | 291° |
| 2026-05-04 16:03 | 41.57120 | -32.42714 | 38384 ft | 463 kts | 291° |
| 2026-05-04 16:04 | 41.58945 | -32.50945 | 38386 ft | 462 kts | 291° |
| 2026-05-04 16:04 | 41.61670 | -32.63294 | 38385 ft | 461 kts | 291° |
| 2026-05-04 16:05 | 41.63478 | -32.71524 | 38377 ft | 462 kts | 291° |
| 2026-05-04 16:06 | 41.66174 | -32.83860 | 38379 ft | 460 kts | 291° |
| 2026-05-04 16:07 | 41.69731 | -33.00244 | 38391 ft | 460 kts | 292° |
| 2026-05-04 16:08 | 41.73273 | -33.16683 | 38381 ft | 459 kts | 292° |
| 2026-05-04 16:09 | 41.77657 | -33.37209 | 38374 ft | 458 kts | 292° |
| 2026-05-04 16:10 | 41.81128 | -33.53599 | 38366 ft | 457 kts | 292° |
| 2026-05-04 16:11 | 41.84572 | -33.69994 | 38366 ft | 456 kts | 292° |
| 2026-05-04 16:12 | 41.89396 | -33.93183 | 38365 ft | 456 kts | 292° |
| 2026-05-04 16:13 | 41.92779 | -34.09593 | 38363 ft | 456 kts | 292° |
| 2026-05-04 16:14 | 41.96137 | -34.26017 | 38360 ft | 456 kts | 291° |
| 2026-05-04 16:16 | 42.00303 | -34.46579 | 38355 ft | 456 kts | 291° |
| 2026-05-04 16:17 | 42.04426 | -34.67132 | 38355 ft | 456 kts | 290° |
| 2026-05-04 16:18 | 42.07699 | -34.83596 | 38358 ft | 456 kts | 290° |
| 2026-05-04 16:19 | 42.11750 | -35.04171 | 38349 ft | 456 kts | 290° |
| 2026-05-04 16:20 | 42.15783 | -35.24871 | 38342 ft | 457 kts | 290° |
| 2026-05-04 16:22 | 42.19791 | -35.45660 | 38352 ft | 459 kts | 290° |
| 2026-05-04 16:23 | 42.24566 | -35.70716 | 38342 ft | 460 kts | 289° |
| 2026-05-04 16:25 | 42.29293 | -35.95849 | 38342 ft | 460 kts | 289° |
| 2026-05-04 16:26 | 42.34724 | -36.25140 | 38328 ft | 460 kts | 288° |
| 2026-05-04 16:28 | 42.38574 | -36.46182 | 38336 ft | 460 kts | 287° |
| 2026-05-04 16:29 | 42.43873 | -36.75535 | 38333 ft | 460 kts | 287° |
| 2026-05-04 16:31 | 42.47626 | -36.96614 | 38338 ft | 461 kts | 286° |
| 2026-05-04 16:32 | 42.52091 | -37.22010 | 38327 ft | 463 kts | 286° |
| 2026-05-04 16:33 | 42.55045 | -37.39012 | 38329 ft | 464 kts | 285° |
| 2026-05-04 16:34 | 42.57248 | -37.51794 | 38312 ft | 465 kts | 285° |
| 2026-05-04 16:35 | 42.61608 | -37.77374 | 38307 ft | 465 kts | 284° |
| 2026-05-04 16:36 | 42.63758 | -37.90158 | 38142 ft | 448 kts | 286° |
| 2026-05-04 16:37 | 42.65131 | -37.98295 | 38297 ft | 445 kts | 286° |
| 2026-05-04 16:37 | 42.65817 | -38.02399 | 38302 ft | 445 kts | 285° |
| 2026-05-04 16:38 | 42.68531 | -38.18756 | 38297 ft | 442 kts | 285° |
| 2026-05-04 16:39 | 42.71872 | -38.39101 | 38294 ft | 440 kts | 285° |
| 2026-05-04 16:40 | 42.74507 | -38.55308 | 38286 ft | 438 kts | 284° |
| 2026-05-04 16:41 | 42.77758 | -38.75526 | 38280 ft | 437 kts | 284° |
| 2026-05-04 16:43 | 42.80968 | -38.95727 | 38280 ft | 436 kts | 284° |
| 2026-05-04 16:43 | 42.82873 | -39.07835 | 38278 ft | 436 kts | 283° |
| 2026-05-04 16:45 | 42.86631 | -39.31986 | 38274 ft | 435 kts | 283° |
| 2026-05-04 16:46 | 42.89733 | -39.52189 | 38266 ft | 436 kts | 282° |
| 2026-05-04 16:47 | 42.92191 | -39.68380 | 38265 ft | 436 kts | 282° |
| 2026-05-04 16:48 | 42.94629 | -39.84605 | 38259 ft | 437 kts | 282° |
| 2026-05-04 16:49 | 42.97046 | -40.00854 | 38254 ft | 437 kts | 281° |
| 2026-05-04 16:50 | 42.99444 | -40.17143 | 38251 ft | 438 kts | 281° |
| 2026-05-04 16:51 | 43.01232 | -40.29403 | 38248 ft | 439 kts | 281° |
| 2026-05-04 16:52 | 43.03601 | -40.45791 | 38244 ft | 440 kts | 281° |
| 2026-05-04 16:53 | 43.05366 | -40.58119 | 38238 ft | 441 kts | 281° |
| 2026-05-04 16:54 | 43.07696 | -40.74551 | 38230 ft | 442 kts | 280° |
| 2026-05-04 16:55 | 43.11161 | -40.99320 | 38222 ft | 442 kts | 280° |
| 2026-05-04 16:56 | 43.14009 | -41.19988 | 38219 ft | 442 kts | 280° |
| 2026-05-04 16:57 | 43.15698 | -41.32383 | 38212 ft | 441 kts | 279° |
| 2026-05-04 16:58 | 43.17923 | -41.48878 | 38203 ft | 439 kts | 279° |
| 2026-05-04 17:00 | 43.21189 | -41.73439 | 38205 ft | 436 kts | 279° |
| 2026-05-04 17:01 | 43.23861 | -41.93852 | 38203 ft | 434 kts | 279° |
| 2026-05-04 17:02 | 43.25785 | -42.08728 | 38192 ft | 430 kts | 278° |
| 2026-05-04 17:03 | 43.27333 | -42.20824 | 38190 ft | 428 kts | 278° |
| 2026-05-04 17:03 | 43.28864 | -42.32895 | 38184 ft | 427 kts | 278° |
| 2026-05-04 17:04 | 43.30879 | -42.48933 | 38179 ft | 426 kts | 278° |
| 2026-05-04 17:05 | 43.32871 | -42.64981 | 38164 ft | 426 kts | 277° |
| 2026-05-04 17:06 | 43.34347 | -42.76998 | 38161 ft | 425 kts | 277° |
| 2026-05-04 17:07 | 43.35644 | -42.87651 | 38159 ft | 424 kts | 277° |
| 2026-05-04 17:07 | 43.36773 | -42.96991 | 38156 ft | 424 kts | 277° |
| 2026-05-04 17:08 | 43.38208 | -43.08964 | 38142 ft | 423 kts | 276° |
| 2026-05-04 17:09 | 43.39157 | -43.16941 | 38141 ft | 423 kts | 276° |
| 2026-05-04 17:09 | 43.40100 | -43.24913 | 38129 ft | 422 kts | 276° |
| 2026-05-04 17:10 | 43.42420 | -43.44754 | 38120 ft | 421 kts | 276° |
| 2026-05-04 17:11 | 43.43341 | -43.52709 | 38118 ft | 420 kts | 276° |
| 2026-05-04 17:12 | 43.44705 | -43.64593 | 38121 ft | 419 kts | 275° |
| 2026-05-04 17:13 | 43.46949 | -43.84392 | 38112 ft | 419 kts | 275° |
| 2026-05-04 17:14 | 43.48720 | -44.00247 | 38102 ft | 419 kts | 275° |
| 2026-05-04 17:15 | 43.50033 | -44.12138 | 38087 ft | 419 kts | 275° |
| 2026-05-04 17:16 | 43.51765 | -44.28003 | 38082 ft | 419 kts | 274° |
| 2026-05-04 17:17 | 43.53466 | -44.43793 | 38071 ft | 418 kts | 274° |
| 2026-05-04 17:18 | 43.55147 | -44.59600 | 38067 ft | 416 kts | 274° |
| 2026-05-04 17:19 | 43.56802 | -44.75392 | 38059 ft | 416 kts | 274° |
| 2026-05-04 17:20 | 43.58435 | -44.91177 | 38050 ft | 415 kts | 274° |
| 2026-05-04 17:20 | 43.59644 | -45.03011 | 38040 ft | 415 kts | 273° |
| 2026-05-04 17:21 | 43.61237 | -45.18790 | 38024 ft | 416 kts | 273° |
| 2026-05-04 17:22 | 43.62026 | -45.26697 | 38026 ft | 415 kts | 273° |
| 2026-05-04 17:23 | 43.63589 | -45.42518 | 38009 ft | 416 kts | 272° |
| 2026-05-04 17:24 | 43.64749 | -45.54418 | 38006 ft | 417 kts | 272° |
| 2026-05-04 17:25 | 43.66272 | -45.70225 | 37989 ft | 417 kts | 272° |
| 2026-05-04 17:26 | 43.67780 | -45.86135 | 37993 ft | 418 kts | 272° |
| 2026-05-04 17:27 | 43.69634 | -46.06019 | 37986 ft | 418 kts | 272° |
| 2026-05-04 17:28 | 43.71094 | -46.21946 | 37986 ft | 418 kts | 271° |
| 2026-05-04 17:29 | 43.73239 | -46.45832 | 37979 ft | 417 kts | 271° |
| 2026-05-04 17:31 | 43.74987 | -46.65729 | 37979 ft | 417 kts | 271° |
| 2026-05-04 17:32 | 43.76703 | -46.85658 | 37995 ft | 417 kts | 271° |
| 2026-05-04 17:33 | 43.78050 | -47.01607 | 37985 ft | 418 kts | 270° |
| 2026-05-04 17:34 | 43.79377 | -47.17584 | 37994 ft | 417 kts | 270° |
| 2026-05-04 17:35 | 43.81003 | -47.37547 | 38000 ft | 418 kts | 270° |
| 2026-05-04 17:36 | 43.81644 | -47.45543 | 37987 ft | 418 kts | 270° |
| 2026-05-04 17:36 | 43.82280 | -47.53542 | 37994 ft | 418 kts | 270° |
| 2026-05-04 17:37 | 43.82910 | -47.61540 | 37989 ft | 418 kts | 270° |
| 2026-05-04 17:37 | 43.83535 | -47.69553 | 37992 ft | 418 kts | 270° |
| 2026-05-04 17:38 | 43.84154 | -47.77558 | 37994 ft | 418 kts | 270° |
| 2026-05-04 17:38 | 43.84763 | -47.85502 | 37996 ft | 418 kts | 270° |
| 2026-05-04 17:39 | 43.85671 | -47.97501 | 37994 ft | 417 kts | 269° |
| 2026-05-04 17:39 | 43.86269 | -48.05493 | 37996 ft | 417 kts | 269° |
| 2026-05-04 17:40 | 43.86861 | -48.13482 | 37993 ft | 417 kts | 269° |
| 2026-05-04 17:40 | 43.87449 | -48.21482 | 37995 ft | 417 kts | 269° |
| 2026-05-04 17:41 | 43.88030 | -48.29476 | 37992 ft | 417 kts | 269° |
| 2026-05-04 17:41 | 43.88605 | -48.37468 | 37991 ft | 417 kts | 269° |
| 2026-05-04 17:42 | 43.89176 | -48.45468 | 37993 ft | 417 kts | 269° |
| 2026-05-04 17:42 | 43.89740 | -48.53466 | 37992 ft | 417 kts | 269° |
| 2026-05-04 17:43 | 43.90299 | -48.61462 | 37985 ft | 417 kts | 269° |
| 2026-05-04 17:43 | 43.90852 | -48.69459 | 37986 ft | 417 kts | 269° |
| 2026-05-04 17:44 | 43.91400 | -48.77471 | 37991 ft | 417 kts | 269° |
| 2026-05-04 17:44 | 43.91943 | -48.85491 | 37991 ft | 418 kts | 269° |
| 2026-05-04 17:45 | 43.92481 | -48.93518 | 37988 ft | 418 kts | 268° |
| 2026-05-04 17:45 | 43.93013 | -49.01545 | 37989 ft | 418 kts | 268° |
| 2026-05-04 17:46 | 43.93541 | -49.09591 | 37987 ft | 419 kts | 268° |
| 2026-05-04 17:46 | 43.94063 | -49.17640 | 37990 ft | 420 kts | 268° |
| 2026-05-04 17:47 | 43.94577 | -49.25659 | 37987 ft | 420 kts | 268° |
| 2026-05-04 17:47 | 43.95093 | -49.33790 | 37983 ft | 421 kts | 268° |
| 2026-05-04 17:48 | 43.95597 | -49.41828 | 37985 ft | 421 kts | 268° |
| 2026-05-04 17:48 | 43.96100 | -49.49936 | 37983 ft | 422 kts | 268° |
| 2026-05-04 17:49 | 43.96598 | -49.58061 | 37986 ft | 423 kts | 268° |
| 2026-05-04 17:49 | 43.97091 | -49.66192 | 37983 ft | 423 kts | 268° |
| 2026-05-04 17:50 | 43.97501 | -49.73026 | 37985 ft | 424 kts | 268° |
| 2026-05-04 17:50 | 43.97985 | -49.81195 | 37986 ft | 425 kts | 268° |
| 2026-05-04 17:51 | 43.98464 | -49.89381 | 37984 ft | 426 kts | 268° |
| 2026-05-04 17:51 | 43.98934 | -49.97522 | 37984 ft | 426 kts | 268° |
| 2026-05-04 17:52 | 43.99404 | -50.05741 | 37983 ft | 427 kts | 268° |
| 2026-05-04 17:52 | 43.99868 | -50.13971 | 37976 ft | 428 kts | 268° |
| 2026-05-04 17:53 | 44.00326 | -50.22210 | 37979 ft | 428 kts | 268° |
| 2026-05-04 17:53 | 44.00779 | -50.30464 | 37975 ft | 429 kts | 268° |
| 2026-05-04 17:54 | 44.01227 | -50.38735 | 37971 ft | 430 kts | 268° |
| 2026-05-04 17:54 | 44.01670 | -50.47019 | 37976 ft | 430 kts | 268° |
| 2026-05-04 17:55 | 44.02108 | -50.55319 | 37972 ft | 431 kts | 268° |
| 2026-05-04 17:55 | 44.02539 | -50.63622 | 37969 ft | 431 kts | 268° |
| 2026-05-04 17:56 | 44.02966 | -50.71943 | 37966 ft | 431 kts | 268° |
| 2026-05-04 17:56 | 44.03386 | -50.80259 | 37965 ft | 432 kts | 268° |
| 2026-05-04 17:57 | 44.03800 | -50.88571 | 37962 ft | 432 kts | 268° |
| 2026-05-04 17:57 | 44.04208 | -50.96895 | 37962 ft | 432 kts | 268° |
| 2026-05-04 17:58 | 44.04611 | -51.05223 | 37964 ft | 432 kts | 268° |
| 2026-05-04 17:58 | 44.05008 | -51.13566 | 37955 ft | 433 kts | 268° |
| 2026-05-04 17:59 | 44.05399 | -51.21920 | 37959 ft | 433 kts | 268° |
| 2026-05-04 18:00 | 44.05976 | -51.34471 | 37952 ft | 434 kts | 268° |
| 2026-05-04 18:00 | 44.06353 | -51.42849 | 37949 ft | 434 kts | 268° |
| 2026-05-04 18:01 | 44.06724 | -51.51240 | 37945 ft | 435 kts | 268° |
| 2026-05-04 18:01 | 44.07090 | -51.59635 | 37950 ft | 435 kts | 268° |
| 2026-05-04 18:02 | 44.07627 | -51.72239 | 37945 ft | 434 kts | 268° |
| 2026-05-04 18:02 | 44.07977 | -51.80626 | 37933 ft | 435 kts | 268° |
| 2026-05-04 18:03 | 44.08321 | -51.89027 | 37939 ft | 436 kts | 268° |
| 2026-05-04 18:03 | 44.08660 | -51.97447 | 37935 ft | 436 kts | 268° |
| 2026-05-04 18:04 | 44.08992 | -52.05866 | 37939 ft | 436 kts | 268° |
| 2026-05-04 18:05 | 44.09480 | -52.18516 | 37933 ft | 437 kts | 268° |
| 2026-05-04 18:05 | 44.09798 | -52.26960 | 37927 ft | 437 kts | 268° |
| 2026-05-04 18:06 | 44.10261 | -52.39583 | 37922 ft | 437 kts | 268° |
| 2026-05-04 18:06 | 44.10563 | -52.48034 | 37922 ft | 438 kts | 268° |
| 2026-05-04 18:07 | 44.10860 | -52.56483 | 37921 ft | 437 kts | 268° |
| 2026-05-04 18:07 | 44.11150 | -52.64935 | 37925 ft | 437 kts | 268° |
| 2026-05-04 18:08 | 44.11433 | -52.73384 | 37919 ft | 437 kts | 268° |
| 2026-05-04 18:08 | 44.11710 | -52.81821 | 37916 ft | 437 kts | 268° |
| 2026-05-04 18:09 | 44.12256 | -52.98724 | 37910 ft | 437 kts | 268° |
| 2026-05-04 18:10 | 44.12520 | -53.07186 | 37913 ft | 438 kts | 268° |
| 2026-05-04 18:10 | 44.12777 | -53.15649 | 37910 ft | 438 kts | 268° |
| 2026-05-04 18:11 | 44.13029 | -53.24135 | 37908 ft | 439 kts | 267° |
| 2026-05-04 18:11 | 44.13275 | -53.32616 | 37899 ft | 439 kts | 267° |
| 2026-05-04 18:12 | 44.13515 | -53.41119 | 37903 ft | 439 kts | 267° |
| 2026-05-04 18:12 | 44.13749 | -53.49621 | 37905 ft | 440 kts | 267° |
| 2026-05-04 18:13 | 44.13976 | -53.58134 | 37898 ft | 440 kts | 267° |
| 2026-05-04 18:14 | 44.14306 | -53.70901 | 37897 ft | 440 kts | 267° |
| 2026-05-04 18:14 | 44.14516 | -53.79358 | 37896 ft | 440 kts | 267° |
| 2026-05-04 18:15 | 44.14921 | -53.96388 | 37891 ft | 441 kts | 267° |
| 2026-05-04 18:16 | 44.15114 | -54.04918 | 37894 ft | 441 kts | 267° |
| 2026-05-04 18:16 | 44.15301 | -54.13459 | 37881 ft | 441 kts | 267° |
| 2026-05-04 18:17 | 44.15569 | -54.26267 | 37891 ft | 442 kts | 267° |
| 2026-05-04 18:18 | 44.15824 | -54.39092 | 37882 ft | 442 kts | 267° |
| 2026-05-04 18:18 | 44.15986 | -54.47648 | 37886 ft | 442 kts | 267° |
| 2026-05-04 18:19 | 44.16216 | -54.60485 | 37876 ft | 442 kts | 267° |
| 2026-05-04 18:19 | 44.16363 | -54.69060 | 37877 ft | 442 kts | 267° |
| 2026-05-04 18:20 | 44.16502 | -54.77619 | 37878 ft | 442 kts | 267° |
| 2026-05-04 18:20 | 44.16635 | -54.86191 | 37876 ft | 443 kts | 267° |
| 2026-05-04 18:21 | 44.16221 | -54.94682 | 37874 ft | 439 kts | 261° |
| 2026-05-04 18:21 | 44.15633 | -55.03156 | 37870 ft | 439 kts | 261° |
| 2026-05-04 18:22 | 44.15032 | -55.11560 | 37869 ft | 439 kts | 261° |
| 2026-05-04 18:22 | 44.14427 | -55.20024 | 37869 ft | 439 kts | 261° |
| 2026-05-04 18:23 | 44.13808 | -55.28544 | 37866 ft | 439 kts | 261° |
| 2026-05-04 18:23 | 44.13194 | -55.36933 | 37866 ft | 439 kts | 261° |
| 2026-05-04 18:24 | 44.12568 | -55.45387 | 37861 ft | 439 kts | 261° |
| 2026-05-04 18:24 | 44.11937 | -55.53836 | 37868 ft | 439 kts | 261° |
| 2026-05-04 18:25 | 44.11298 | -55.62292 | 37872 ft | 439 kts | 261° |
| 2026-05-04 18:25 | 44.10654 | -55.70742 | 37861 ft | 439 kts | 261° |
| 2026-05-04 18:26 | 44.10002 | -55.79199 | 37866 ft | 439 kts | 261° |
| 2026-05-04 18:26 | 44.09345 | -55.87651 | 37859 ft | 440 kts | 261° |
| 2026-05-04 18:27 | 44.08682 | -55.96099 | 37868 ft | 439 kts | 261° |
| 2026-05-04 18:27 | 44.08012 | -56.04545 | 37869 ft | 439 kts | 261° |
| 2026-05-04 18:28 | 44.07336 | -56.12993 | 37857 ft | 439 kts | 261° |
| 2026-05-04 18:28 | 44.06654 | -56.21432 | 37860 ft | 439 kts | 261° |
| 2026-05-04 18:29 | 44.05967 | -56.29864 | 37858 ft | 439 kts | 261° |
| 2026-05-04 18:29 | 44.05272 | -56.38307 | 37865 ft | 439 kts | 261° |
| 2026-05-04 18:30 | 44.04219 | -56.50950 | 37864 ft | 439 kts | 261° |
| 2026-05-04 18:31 | 44.03509 | -56.59386 | 37865 ft | 439 kts | 261° |
| 2026-05-04 18:31 | 44.02793 | -56.67816 | 37866 ft | 439 kts | 261° |
| 2026-05-04 18:32 | 44.02076 | -56.76185 | 37866 ft | 439 kts | 261° |
| 2026-05-04 18:32 | 44.01343 | -56.84661 | 37861 ft | 439 kts | 261° |
| 2026-05-04 18:33 | 44.00609 | -56.93075 | 37866 ft | 439 kts | 261° |
| 2026-05-04 18:33 | 43.99940 | -57.01446 | 37871 ft | 439 kts | 264° |
| 2026-05-04 18:34 | 43.99595 | -57.09920 | 37863 ft | 440 kts | 263° |
| 2026-05-04 18:34 | 43.99239 | -57.18397 | 37862 ft | 440 kts | 264° |
| 2026-05-04 18:35 | 43.98881 | -57.26872 | 37869 ft | 440 kts | 264° |
| 2026-05-04 18:35 | 43.98513 | -57.35345 | 37870 ft | 440 kts | 264° |
| 2026-05-04 18:36 | 43.98141 | -57.43820 | 37857 ft | 439 kts | 264° |
| 2026-05-04 18:36 | 43.97762 | -57.52286 | 37866 ft | 440 kts | 264° |
| 2026-05-04 18:37 | 43.97377 | -57.60764 | 37860 ft | 440 kts | 263° |
| 2026-05-04 18:37 | 43.97049 | -57.67854 | 37866 ft | 440 kts | 263° |
| 2026-05-04 18:38 | 43.96655 | -57.76268 | 37862 ft | 439 kts | 263° |
| 2026-05-04 18:38 | 43.96253 | -57.84725 | 37865 ft | 439 kts | 263° |
| 2026-05-04 18:39 | 43.95845 | -57.93166 | 37865 ft | 439 kts | 263° |
| 2026-05-04 18:39 | 43.95430 | -58.01614 | 37862 ft | 439 kts | 263° |
| 2026-05-04 18:40 | 43.95010 | -58.10055 | 37865 ft | 438 kts | 263° |
| 2026-05-04 18:40 | 43.94583 | -58.18496 | 37870 ft | 438 kts | 263° |
| 2026-05-04 18:41 | 43.94150 | -58.26940 | 37864 ft | 438 kts | 263° |
| 2026-05-04 18:41 | 43.93711 | -58.35368 | 37868 ft | 438 kts | 263° |
| 2026-05-04 18:42 | 43.93266 | -58.43797 | 37862 ft | 438 kts | 263° |
| 2026-05-04 18:42 | 43.92814 | -58.52231 | 37865 ft | 438 kts | 263° |
| 2026-05-04 18:43 | 43.92357 | -58.60656 | 37865 ft | 438 kts | 263° |
| 2026-05-04 18:43 | 43.91893 | -58.69086 | 37861 ft | 438 kts | 263° |
| 2026-05-04 18:44 | 43.91424 | -58.77503 | 37865 ft | 438 kts | 263° |
| 2026-05-04 18:44 | 43.90948 | -58.85924 | 37864 ft | 438 kts | 263° |
| 2026-05-04 18:45 | 43.90465 | -58.94351 | 37860 ft | 438 kts | 263° |
| 2026-05-04 18:45 | 43.89977 | -59.02767 | 37861 ft | 438 kts | 263° |
| 2026-05-04 18:46 | 43.89483 | -59.11192 | 37862 ft | 438 kts | 263° |
| 2026-05-04 18:46 | 43.88982 | -59.19612 | 37860 ft | 439 kts | 263° |
| 2026-05-04 18:47 | 43.88474 | -59.28040 | 37854 ft | 439 kts | 263° |
| 2026-05-04 18:47 | 43.87960 | -59.36469 | 37846 ft | 439 kts | 263° |
| 2026-05-04 18:48 | 43.87443 | -59.44849 | 37851 ft | 440 kts | 263° |
| 2026-05-04 18:48 | 43.86915 | -59.53294 | 37849 ft | 440 kts | 263° |
| 2026-05-04 18:49 | 43.86382 | -59.61740 | 37841 ft | 440 kts | 263° |
| 2026-05-04 18:49 | 43.85841 | -59.70196 | 37839 ft | 440 kts | 263° |
| 2026-05-04 18:50 | 43.85295 | -59.78642 | 37835 ft | 440 kts | 263° |
| 2026-05-04 18:50 | 43.84741 | -59.87097 | 37834 ft | 440 kts | 263° |
| 2026-05-04 18:51 | 43.84182 | -59.95546 | 37833 ft | 440 kts | 263° |
| 2026-05-04 18:51 | 43.83616 | -60.03996 | 37834 ft | 441 kts | 263° |
| 2026-05-04 18:52 | 43.83044 | -60.12440 | 37837 ft | 441 kts | 262° |
| 2026-05-04 18:52 | 43.82466 | -60.20893 | 37839 ft | 441 kts | 262° |
| 2026-05-04 18:53 | 43.81881 | -60.29341 | 37843 ft | 440 kts | 262° |
| 2026-05-04 18:53 | 43.81291 | -60.37776 | 37846 ft | 440 kts | 262° |
| 2026-05-04 18:54 | 43.80696 | -60.46198 | 37842 ft | 440 kts | 262° |
| 2026-05-04 18:54 | 43.80093 | -60.54625 | 37854 ft | 440 kts | 262° |
| 2026-05-04 18:55 | 43.79485 | -60.63050 | 37856 ft | 440 kts | 262° |
| 2026-05-04 18:55 | 43.78561 | -60.75682 | 37867 ft | 440 kts | 262° |
| 2026-05-04 18:56 | 43.77938 | -60.84100 | 37869 ft | 440 kts | 262° |
| 2026-05-04 18:56 | 43.77308 | -60.92522 | 37871 ft | 440 kts | 262° |
| 2026-05-04 18:57 | 43.76671 | -61.00952 | 37878 ft | 440 kts | 262° |
| 2026-05-04 18:57 | 43.76028 | -61.09374 | 37875 ft | 441 kts | 262° |
| 2026-05-04 18:58 | 43.75382 | -61.17750 | 37877 ft | 441 kts | 262° |
| 2026-05-04 18:58 | 43.74726 | -61.26176 | 37876 ft | 441 kts | 262° |
| 2026-05-04 18:59 | 43.74065 | -61.34595 | 37881 ft | 440 kts | 262° |
| 2026-05-04 18:59 | 43.73397 | -61.43017 | 37883 ft | 441 kts | 262° |
| 2026-05-04 19:00 | 43.72723 | -61.51439 | 37886 ft | 441 kts | 262° |
| 2026-05-04 19:00 | 43.72042 | -61.59862 | 37886 ft | 441 kts | 262° |
| 2026-05-04 19:01 | 43.71356 | -61.68270 | 37883 ft | 440 kts | 262° |
| 2026-05-04 19:01 | 43.70664 | -61.76678 | 37882 ft | 440 kts | 262° |
| 2026-05-04 19:02 | 43.69966 | -61.85081 | 37882 ft | 440 kts | 262° |
| 2026-05-04 19:02 | 43.69262 | -61.93471 | 37886 ft | 440 kts | 262° |
| 2026-05-04 19:03 | 43.68552 | -62.01865 | 37897 ft | 440 kts | 262° |
| 2026-05-04 19:03 | 43.67836 | -62.10257 | 37891 ft | 440 kts | 262° |
| 2026-05-04 19:04 | 43.67113 | -62.18648 | 37897 ft | 440 kts | 262° |
| 2026-05-04 19:04 | 43.66385 | -62.27039 | 37889 ft | 440 kts | 262° |
| 2026-05-04 19:05 | 43.65650 | -62.35422 | 37889 ft | 440 kts | 262° |
| 2026-05-04 19:05 | 43.64910 | -62.43805 | 37890 ft | 439 kts | 262° |
| 2026-05-04 19:06 | 43.64164 | -62.52179 | 37895 ft | 439 kts | 262° |
| 2026-05-04 19:06 | 43.63412 | -62.60539 | 37892 ft | 439 kts | 262° |
| 2026-05-04 19:07 | 43.62654 | -62.68910 | 37895 ft | 439 kts | 261° |
| 2026-05-04 19:07 | 43.61891 | -62.77262 | 37898 ft | 439 kts | 261° |
| 2026-05-04 19:08 | 43.61126 | -62.85564 | 37899 ft | 439 kts | 261° |
| 2026-05-04 19:08 | 43.60351 | -62.93914 | 37902 ft | 439 kts | 261° |
| 2026-05-04 19:09 | 43.59570 | -63.02258 | 37901 ft | 438 kts | 261° |
| 2026-05-04 19:09 | 43.58783 | -63.10597 | 37898 ft | 438 kts | 261° |
| 2026-05-04 19:10 | 43.57990 | -63.18931 | 37903 ft | 439 kts | 261° |
| 2026-05-04 19:10 | 43.57191 | -63.27272 | 37897 ft | 439 kts | 261° |
| 2026-05-04 19:11 | 43.56386 | -63.35606 | 37896 ft | 438 kts | 261° |
| 2026-05-04 19:11 | 43.55574 | -63.43938 | 37890 ft | 438 kts | 261° |
| 2026-05-04 19:12 | 43.54346 | -63.56428 | 37892 ft | 438 kts | 261° |
| 2026-05-04 19:13 | 43.53521 | -63.64742 | 37897 ft | 438 kts | 261° |
| 2026-05-04 19:13 | 43.52690 | -63.73056 | 37897 ft | 438 kts | 261° |
| 2026-05-04 19:14 | 43.51852 | -63.81374 | 37897 ft | 438 kts | 261° |
| 2026-05-04 19:14 | 43.51009 | -63.89678 | 37895 ft | 438 kts | 261° |
| 2026-05-04 19:15 | 43.50160 | -63.97982 | 37892 ft | 438 kts | 261° |
| 2026-05-04 19:15 | 43.49304 | -64.06288 | 37896 ft | 438 kts | 261° |
| 2026-05-04 19:16 | 43.48444 | -64.14581 | 37892 ft | 437 kts | 261° |
| 2026-05-04 19:16 | 43.47584 | -64.22812 | 37885 ft | 437 kts | 261° |
| 2026-05-04 19:17 | 43.46711 | -64.31100 | 37881 ft | 438 kts | 260° |
| 2026-05-04 19:17 | 43.45833 | -64.39385 | 37882 ft | 437 kts | 260° |
| 2026-05-04 19:18 | 43.44948 | -64.47674 | 37882 ft | 438 kts | 260° |
| 2026-05-04 19:18 | 43.44057 | -64.55959 | 37882 ft | 438 kts | 260° |
| 2026-05-04 19:19 | 43.43160 | -64.64244 | 37881 ft | 438 kts | 260° |
| 2026-05-04 19:19 | 43.42259 | -64.72511 | 37882 ft | 437 kts | 260° |
| 2026-05-04 19:20 | 43.41350 | -64.80782 | 37881 ft | 437 kts | 260° |
| 2026-05-04 19:20 | 43.40436 | -64.89051 | 37881 ft | 437 kts | 260° |
| 2026-05-04 19:21 | 43.39517 | -64.97317 | 37883 ft | 437 kts | 260° |
| 2026-05-04 19:21 | 43.38591 | -65.05576 | 37887 ft | 437 kts | 260° |
| 2026-05-04 19:22 | 43.37660 | -65.13828 | 37886 ft | 437 kts | 260° |
| 2026-05-04 19:22 | 43.36722 | -65.22090 | 37887 ft | 437 kts | 260° |
| 2026-05-04 19:23 | 43.35938 | -65.28952 | 37885 ft | 438 kts | 260° |
| 2026-05-04 19:23 | 43.34989 | -65.37209 | 37889 ft | 438 kts | 260° |
| 2026-05-04 19:24 | 43.34033 | -65.45475 | 37892 ft | 438 kts | 260° |
| 2026-05-04 19:24 | 43.33071 | -65.53740 | 37893 ft | 438 kts | 259° |
| 2026-05-04 19:25 | 43.32102 | -65.62001 | 37893 ft | 438 kts | 259° |
| 2026-05-04 19:25 | 43.31127 | -65.70268 | 37893 ft | 438 kts | 259° |
| 2026-05-04 19:26 | 43.30146 | -65.78532 | 37889 ft | 439 kts | 259° |
| 2026-05-04 19:26 | 43.29159 | -65.86795 | 37887 ft | 439 kts | 259° |
| 2026-05-04 19:27 | 43.28165 | -65.95058 | 37885 ft | 438 kts | 259° |
| 2026-05-04 19:27 | 43.27166 | -66.03313 | 37886 ft | 439 kts | 259° |
| 2026-05-04 19:28 | 43.26162 | -66.11561 | 37882 ft | 439 kts | 259° |
| 2026-05-04 19:28 | 43.25151 | -66.19819 | 37881 ft | 439 kts | 259° |
| 2026-05-04 19:29 | 43.24135 | -66.28057 | 37880 ft | 438 kts | 259° |
| 2026-05-04 19:29 | 43.23112 | -66.36306 | 37887 ft | 439 kts | 259° |
| 2026-05-04 19:30 | 43.22083 | -66.44554 | 37880 ft | 439 kts | 259° |
| 2026-05-04 19:30 | 43.21048 | -66.52796 | 37884 ft | 439 kts | 259° |
| 2026-05-04 19:31 | 43.20008 | -66.61032 | 37885 ft | 439 kts | 259° |
| 2026-05-04 19:31 | 43.18968 | -66.69214 | 37877 ft | 439 kts | 259° |
| 2026-05-04 19:32 | 43.17915 | -66.77447 | 37876 ft | 439 kts | 259° |
| 2026-05-04 19:32 | 43.16855 | -66.85690 | 37880 ft | 439 kts | 259° |
| 2026-05-04 19:33 | 43.15791 | -66.93920 | 37880 ft | 439 kts | 259° |
| 2026-05-04 19:33 | 43.14378 | -67.01990 | 37883 ft | 439 kts | 249° |
| 2026-05-04 19:34 | 43.12058 | -67.09717 | 37879 ft | 439 kts | 248° |
| 2026-05-04 19:34 | 43.09711 | -67.17430 | 37880 ft | 439 kts | 248° |
| 2026-05-04 19:35 | 43.07363 | -67.25134 | 37880 ft | 439 kts | 248° |
| 2026-05-04 19:35 | 43.05009 | -67.32832 | 37880 ft | 439 kts | 248° |
| 2026-05-04 19:36 | 43.02650 | -67.40524 | 37878 ft | 439 kts | 248° |
| 2026-05-04 19:36 | 43.00286 | -67.48209 | 37876 ft | 439 kts | 248° |
| 2026-05-04 19:37 | 42.97915 | -67.55894 | 37873 ft | 439 kts | 248° |
| 2026-05-04 19:37 | 42.95541 | -67.63569 | 37874 ft | 439 kts | 248° |
| 2026-05-04 19:38 | 42.93160 | -67.71240 | 37874 ft | 439 kts | 248° |
| 2026-05-04 19:38 | 42.90773 | -67.78910 | 37873 ft | 439 kts | 248° |
| 2026-05-04 19:39 | 42.88378 | -67.86585 | 37873 ft | 440 kts | 248° |
| 2026-05-04 19:39 | 42.85977 | -67.94256 | 37871 ft | 440 kts | 248° |
| 2026-05-04 19:40 | 42.83571 | -68.01918 | 37869 ft | 440 kts | 248° |
| 2026-05-04 19:40 | 42.81161 | -68.09572 | 37867 ft | 440 kts | 248° |
| 2026-05-04 19:41 | 42.78762 | -68.17171 | 37869 ft | 440 kts | 248° |
| 2026-05-04 19:41 | 42.76341 | -68.24813 | 37872 ft | 440 kts | 247° |
| 2026-05-04 19:42 | 42.73912 | -68.32462 | 37871 ft | 440 kts | 247° |
| 2026-05-04 19:42 | 42.71477 | -68.40107 | 37873 ft | 441 kts | 247° |
| 2026-05-04 19:43 | 42.69037 | -68.47745 | 37869 ft | 441 kts | 247° |
| 2026-05-04 19:43 | 42.66588 | -68.55391 | 37872 ft | 441 kts | 247° |
| 2026-05-04 19:44 | 42.64135 | -68.63026 | 37872 ft | 441 kts | 247° |
| 2026-05-04 19:44 | 42.61676 | -68.70661 | 37877 ft | 442 kts | 247° |
| 2026-05-04 19:45 | 42.59211 | -68.78289 | 37873 ft | 442 kts | 247° |
| 2026-05-04 19:45 | 42.56735 | -68.85932 | 37872 ft | 442 kts | 247° |
| 2026-05-04 19:46 | 42.54252 | -68.93573 | 37873 ft | 442 kts | 247° |
| 2026-05-04 19:46 | 42.51766 | -69.01202 | 37876 ft | 443 kts | 247° |
| 2026-05-04 19:47 | 42.49271 | -69.08838 | 37877 ft | 443 kts | 247° |
| 2026-05-04 19:47 | 42.46770 | -69.16468 | 37872 ft | 443 kts | 247° |
| 2026-05-04 19:48 | 42.44261 | -69.24102 | 37875 ft | 444 kts | 247° |
| 2026-05-04 19:48 | 42.41747 | -69.31733 | 37866 ft | 444 kts | 247° |
| 2026-05-04 19:49 | 42.39244 | -69.39305 | 37873 ft | 444 kts | 247° |
| 2026-05-04 19:49 | 42.36720 | -69.46921 | 37873 ft | 444 kts | 247° |
| 2026-05-04 19:50 | 42.34186 | -69.54546 | 37874 ft | 444 kts | 247° |
| 2026-05-04 19:50 | 42.31648 | -69.62162 | 37873 ft | 444 kts | 247° |
| 2026-05-04 19:51 | 42.29105 | -69.69770 | 37878 ft | 444 kts | 247° |
| 2026-05-04 19:51 | 42.26559 | -69.77367 | 37872 ft | 444 kts | 247° |
| 2026-05-04 19:52 | 42.24005 | -69.84967 | 37884 ft | 444 kts | 247° |
| 2026-05-04 19:52 | 42.21447 | -69.92557 | 37876 ft | 445 kts | 246° |
| 2026-05-04 19:53 | 42.18881 | -70.00151 | 37885 ft | 445 kts | 246° |
| 2026-05-04 19:53 | 42.16308 | -70.07745 | 37890 ft | 445 kts | 246° |
| 2026-05-04 19:54 | 42.13735 | -70.15318 | 37889 ft | 445 kts | 246° |
| 2026-05-04 19:54 | 42.11151 | -70.22902 | 37893 ft | 445 kts | 246° |
| 2026-05-04 19:55 | 42.08565 | -70.30469 | 37887 ft | 445 kts | 246° |
| 2026-05-04 19:55 | 42.05971 | -70.38040 | 37879 ft | 445 kts | 246° |
| 2026-05-04 19:56 | 42.03460 | -70.45651 | 37847 ft | 445 kts | 249° |
| 2026-05-04 19:56 | 42.01043 | -70.53313 | 37860 ft | 445 kts | 248° |
| 2026-05-04 19:57 | 41.98634 | -70.60996 | 37857 ft | 446 kts | 249° |
| 2026-05-04 19:57 | 41.96211 | -70.68678 | 37878 ft | 446 kts | 248° |
| 2026-05-04 19:58 | 41.93784 | -70.76356 | 37871 ft | 447 kts | 249° |
| 2026-05-04 19:58 | 41.91351 | -70.84031 | 37870 ft | 447 kts | 249° |
| 2026-05-04 19:59 | 41.88910 | -70.91706 | 37881 ft | 448 kts | 249° |
| 2026-05-04 19:59 | 41.86458 | -70.99396 | 37879 ft | 448 kts | 248° |
| 2026-05-04 20:00 | 41.84019 | -71.07025 | 37880 ft | 448 kts | 249° |
| 2026-05-04 20:00 | 41.81558 | -71.14700 | 37879 ft | 448 kts | 248° |
| 2026-05-04 20:01 | 41.79089 | -71.22378 | 37886 ft | 449 kts | 248° |
| 2026-05-04 20:01 | 41.76597 | -71.30105 | 37802 ft | 449 kts | 248° |
| 2026-05-04 20:01 | 41.75370 | -71.33901 | 37318 ft | 450 kts | 249° |
| 2026-05-04 20:02 | 41.74128 | -71.37722 | 36723 ft | 448 kts | 247° |
| 2026-05-04 20:02 | 41.72601 | -71.41374 | 36139 ft | 448 kts | 238° |
| 2026-05-04 20:02 | 41.70667 | -71.44646 | 35529 ft | 450 kts | 230° |
| 2026-05-04 20:02 | 41.68361 | -71.47500 | 34916 ft | 454 kts | 224° |
| 2026-05-04 20:03 | 41.65936 | -71.50233 | 34256 ft | 459 kts | 225° |
| 2026-05-04 20:03 | 41.63481 | -71.52988 | 33531 ft | 462 kts | 225° |
| 2026-05-04 20:03 | 41.61011 | -71.55728 | 32853 ft | 462 kts | 225° |
| 2026-05-04 20:03 | 41.58531 | -71.58481 | 32144 ft | 463 kts | 225° |
| 2026-05-04 20:04 | 41.56068 | -71.61227 | 31458 ft | 460 kts | 225° |
| 2026-05-04 20:04 | 41.53618 | -71.63955 | 30768 ft | 457 kts | 225° |
| 2026-05-04 20:04 | 41.51185 | -71.66655 | 30124 ft | 453 kts | 225° |
| 2026-05-04 20:04 | 41.48766 | -71.69338 | 29407 ft | 449 kts | 225° |
| 2026-05-04 20:05 | 41.46380 | -71.71982 | 28761 ft | 444 kts | 225° |
| 2026-05-04 20:05 | 41.44014 | -71.74603 | 28112 ft | 439 kts | 225° |
| 2026-05-04 20:05 | 41.41682 | -71.77183 | 27474 ft | 434 kts | 225° |
| 2026-05-04 20:05 | 41.39370 | -71.79738 | 26845 ft | 429 kts | 225° |
| 2026-05-04 20:06 | 41.37085 | -71.82261 | 26233 ft | 425 kts | 225° |
| 2026-05-04 20:06 | 41.34818 | -71.84761 | 25613 ft | 421 kts | 225° |
| 2026-05-04 20:06 | 41.32575 | -71.87234 | 25003 ft | 417 kts | 225° |
| 2026-05-04 20:06 | 41.30350 | -71.89683 | 24413 ft | 413 kts | 225° |
| 2026-05-04 20:07 | 41.28149 | -71.92104 | 23985 ft | 407 kts | 225° |
| 2026-05-04 20:07 | 41.25965 | -71.94506 | 23933 ft | 411 kts | 225° |
| 2026-05-04 20:07 | 41.23756 | -71.96937 | 23929 ft | 411 kts | 224° |
| 2026-05-04 20:07 | 41.21546 | -71.99357 | 23927 ft | 414 kts | 224° |
| 2026-05-04 20:08 | 41.19334 | -72.01780 | 23933 ft | 411 kts | 224° |
| 2026-05-04 20:08 | 41.17120 | -72.04206 | 23960 ft | 413 kts | 224° |
| 2026-05-04 20:08 | 41.14926 | -72.06603 | 23608 ft | 400 kts | 224° |
| 2026-05-04 20:08 | 41.12788 | -72.08940 | 22124 ft | 394 kts | 225° |
| 2026-05-04 20:09 | 41.10923 | -72.11496 | 20700 ft | 380 kts | 238° |
| 2026-05-04 20:09 | 41.09543 | -72.14375 | 20609 ft | 373 kts | 247° |
| 2026-05-04 20:09 | 41.08577 | -72.17585 | 20346 ft | 371 kts | 255° |
| 2026-05-04 20:09 | 41.07761 | -72.20808 | 20016 ft | 369 kts | 255° |
| 2026-05-04 20:10 | 41.06959 | -72.24036 | 19700 ft | 368 kts | 255° |
| 2026-05-04 20:10 | 41.06437 | -72.26163 | 19488 ft | 366 kts | 255° |
| 2026-05-04 20:10 | 41.05649 | -72.29356 | 19167 ft | 364 kts | 255° |
| 2026-05-04 20:10 | 41.04857 | -72.32535 | 18858 ft | 363 kts | 254° |
| 2026-05-04 20:11 | 41.04068 | -72.35699 | 18538 ft | 361 kts | 254° |
| 2026-05-04 20:11 | 41.03285 | -72.38840 | 18217 ft | 359 kts | 254° |
| 2026-05-04 20:11 | 41.02250 | -72.42993 | 17767 ft | 356 kts | 254° |
| 2026-05-04 20:11 | 41.01725 | -72.45092 | 17558 ft | 355 kts | 254° |
| 2026-05-04 20:12 | 41.00952 | -72.48182 | 17254 ft | 354 kts | 254° |
| 2026-05-04 20:12 | 41.00176 | -72.51277 | 16954 ft | 352 kts | 254° |
| 2026-05-04 20:12 | 40.99157 | -72.55339 | 16550 ft | 350 kts | 253° |
| 2026-05-04 20:12 | 40.98638 | -72.57405 | 16352 ft | 349 kts | 253° |
| 2026-05-04 20:13 | 40.97873 | -72.60448 | 16074 ft | 348 kts | 253° |
| 2026-05-04 20:13 | 40.97111 | -72.63475 | 15771 ft | 347 kts | 253° |
| 2026-05-04 20:13 | 40.96355 | -72.66472 | 15484 ft | 338 kts | 253° |
| 2026-05-04 20:13 | 40.95638 | -72.69305 | 15196 ft | 325 kts | 253° |
| 2026-05-04 20:14 | 40.94923 | -72.72137 | 14912 ft | 313 kts | 253° |
| 2026-05-04 20:14 | 40.94242 | -72.74832 | 14630 ft | 302 kts | 253° |
| 2026-05-04 20:14 | 40.93583 | -72.77422 | 14352 ft | 293 kts | 252° |
| 2026-05-04 20:14 | 40.92628 | -72.79777 | 14176 ft | 293 kts | 235° |
| 2026-05-04 20:15 | 40.91165 | -72.81622 | 14018 ft | 301 kts | 220° |
| 2026-05-04 20:15 | 40.89481 | -72.83249 | 13681 ft | 297 kts | 220° |
| 2026-05-04 20:15 | 40.87807 | -72.84840 | 13319 ft | 297 kts | 220° |
| 2026-05-04 20:15 | 40.86145 | -72.86425 | 12972 ft | 293 kts | 220° |
| 2026-05-04 20:16 | 40.84475 | -72.88032 | 12676 ft | 292 kts | 220° |
| 2026-05-04 20:16 | 40.82857 | -72.89587 | 12389 ft | 291 kts | 220° |
| 2026-05-04 20:16 | 40.81203 | -72.91170 | 12107 ft | 289 kts | 220° |
| 2026-05-04 20:16 | 40.79595 | -72.92709 | 11831 ft | 289 kts | 220° |
| 2026-05-04 20:17 | 40.77952 | -72.94280 | 11563 ft | 287 kts | 220° |
| 2026-05-04 20:17 | 40.76360 | -72.95803 | 11291 ft | 286 kts | 220° |
| 2026-05-04 20:17 | 40.74732 | -72.97358 | 11015 ft | 285 kts | 220° |
| 2026-05-04 20:17 | 40.73149 | -72.98869 | 10729 ft | 284 kts | 220° |
| 2026-05-04 20:18 | 40.71552 | -73.00393 | 10453 ft | 281 kts | 220° |
| 2026-05-04 20:18 | 40.70044 | -73.01944 | 10186 ft | 268 kts | 230° |
| 2026-05-04 20:18 | 40.69032 | -73.03918 | 9940 ft | 257 kts | 249° |
| 2026-05-04 20:18 | 40.68589 | -73.06167 | 9683 ft | 252 kts | 266° |
| 2026-05-04 20:19 | 40.68579 | -73.08464 | 9434 ft | 252 kts | 271° |
| 2026-05-04 20:19 | 40.68588 | -73.10759 | 9188 ft | 249 kts | 271° |
| 2026-05-04 20:19 | 40.68602 | -73.13041 | 8954 ft | 249 kts | 271° |
| 2026-05-04 20:19 | 40.68615 | -73.15318 | 8727 ft | 248 kts | 271° |
| 2026-05-04 20:20 | 40.68627 | -73.17579 | 8495 ft | 247 kts | 271° |
| 2026-05-04 20:20 | 40.68637 | -73.19832 | 8253 ft | 246 kts | 271° |
| 2026-05-04 20:20 | 40.68648 | -73.22079 | 8039 ft | 246 kts | 271° |
| 2026-05-04 20:20 | 40.68657 | -73.24328 | 7792 ft | 245 kts | 271° |
| 2026-05-04 20:21 | 40.68667 | -73.26468 | 7568 ft | 244 kts | 271° |
| 2026-05-04 20:21 | 40.68675 | -73.28701 | 7340 ft | 242 kts | 271° |
| 2026-05-04 20:21 | 40.68759 | -73.33124 | 6855 ft | 241 kts | 281° |
| 2026-05-04 20:22 | 40.69391 | -73.35158 | 6641 ft | 243 kts | 301° |
| 2026-05-04 20:22 | 40.70506 | -73.36834 | 6417 ft | 244 kts | 310° |
| 2026-05-04 20:22 | 40.71679 | -73.38448 | 6165 ft | 245 kts | 310° |
| 2026-05-04 20:22 | 40.72804 | -73.39992 | 5956 ft | 246 kts | 310° |
| 2026-05-04 20:23 | 40.73987 | -73.41620 | 5717 ft | 246 kts | 310° |
| 2026-05-04 20:23 | 40.75171 | -73.43253 | 5460 ft | 247 kts | 310° |
| 2026-05-04 20:23 | 40.76347 | -73.44875 | 5244 ft | 245 kts | 309° |
| 2026-05-04 20:23 | 40.77525 | -73.46503 | 5007 ft | 246 kts | 309° |
| 2026-05-04 20:24 | 40.78706 | -73.48134 | 4770 ft | 246 kts | 309° |
| 2026-05-04 20:24 | 40.79873 | -73.49746 | 4535 ft | 246 kts | 309° |
| 2026-05-04 20:24 | 40.81052 | -73.51419 | 4289 ft | 244 kts | 304° |
| 2026-05-04 20:24 | 40.81751 | -73.53417 | 4044 ft | 239 kts | 281° |
| 2026-05-04 20:25 | 40.81783 | -73.55560 | 3832 ft | 236 kts | 258° |
| 2026-05-04 20:25 | 40.81291 | -73.57617 | 3600 ft | 236 kts | 250° |
| 2026-05-04 20:25 | 40.80760 | -73.59630 | 3398 ft | 232 kts | 250° |
| 2026-05-04 20:25 | 40.80231 | -73.61640 | 3164 ft | 231 kts | 250° |
| 2026-05-04 20:26 | 40.79447 | -73.63505 | 2929 ft | 231 kts | 229° |
| 2026-05-04 20:26 | 40.78162 | -73.64814 | 2680 ft | 234 kts | 212° |
| 2026-05-04 20:26 | 40.76752 | -73.65908 | 2490 ft | 231 kts | 213° |
| 2026-05-04 20:26 | 40.75347 | -73.67011 | 2284 ft | 234 kts | 212° |
| 2026-05-04 20:27 | 40.74002 | -73.68062 | 2079 ft | 236 kts | 212° |
| 2026-05-04 20:27 | 40.72612 | -73.69151 | 1866 ft | 227 kts | 212° |
| 2026-05-04 20:27 | 40.71234 | -73.70237 | 1573 ft | 223 kts | 212° |
| 2026-05-04 20:27 | 40.69901 | -73.71269 | 1274 ft | 211 kts | 211° |
| 2026-05-04 20:28 | 40.68763 | -73.72161 | 1012 ft | 172 kts | 211° |
| 2026-05-04 20:28 | 40.67818 | -73.72911 | 794 ft | 151 kts | 210° |
| 2026-05-04 20:28 | 40.66990 | -73.73557 | 628 ft | 128 kts | 208° |
| 2026-05-04 20:28 | 40.66234 | -73.74142 | 419 ft | 123 kts | 209° |
| 2026-05-04 20:29 | 40.65486 | -73.74749 | 268 ft | 124 kts | 206° |
| 2026-05-04 20:29 | 40.64778 | -73.75288 | 157 ft | 121 kts | 205° |
| 2026-05-04 20:29 | 40.64038 | -73.75877 | 32 ft | 114 kts | 207° |
| 2026-05-04 20:29 | 40.63521 | -73.76270 | 29 ft | 45 kts | 210° |
| 2026-05-04 20:30 | 40.63293 | -73.76491 | 28 ft | 32 kts | 238° |
| 2026-05-04 20:30 | 40.63240 | -73.76637 | 31 ft | 0 kts | 251° |
| 2026-05-04 20:30 | 40.63238 | -73.76645 | 30 ft | 0 kts | 256° |
| 2026-05-04 20:31 | 40.63239 | -73.76670 | 28 ft | 5 kts | 274° |
| 2026-05-04 20:32 | 40.63262 | -73.76767 | 30 ft | 13 kts | 297° |
| 2026-05-04 20:32 | 40.63306 | -73.76867 | 27 ft | 13 kts | 300° |
| 2026-05-04 20:32 | 40.63353 | -73.76973 | 26 ft | 14 kts | 301° |
| 2026-05-04 20:32 | 40.63404 | -73.77090 | 28 ft | 15 kts | 298° |
| 2026-05-04 20:33 | 40.63455 | -73.77200 | 30 ft | 14 kts | 303° |
| 2026-05-04 20:33 | 40.63511 | -73.77319 | 29 ft | 16 kts | 300° |
| 2026-05-04 20:33 | 40.63537 | -73.77375 | 29 ft | 6 kts | 301° |
| 2026-05-04 20:33 | 40.63562 | -73.77432 | 29 ft | 8 kts | 300° |
| 2026-05-04 20:34 | 40.63594 | -73.77502 | 29 ft | 10 kts | 300° |
| 2026-05-04 20:34 | 40.63640 | -73.77595 | 26 ft | 14 kts | 306° |
| 2026-05-04 20:34 | 40.63697 | -73.77669 | 31 ft | 6 kts | 342° |
| 2026-05-04 20:34 | 40.63712 | -73.77666 | 28 ft | 2 kts | 12° |
| 2026-05-04 20:35 | 40.63728 | -73.77654 | 30 ft | 4 kts | 32° |
| 2026-05-04 20:35 | 40.63776 | -73.77615 | 29 ft | 12 kts | 32° |
| 2026-05-04 20:35 | 40.63867 | -73.77543 | 29 ft | 18 kts | 31° |
| 2026-05-04 20:35 | 40.63987 | -73.77440 | 28 ft | 23 kts | 34° |
| 2026-05-04 20:36 | 40.64052 | -73.77408 | 28 ft | 1 kts | 348° |
| 2026-05-04 20:36 | 40.64078 | -73.77445 | 28 ft | 15 kts | 310° |
| 2026-05-04 20:36 | 40.64179 | -73.77550 | 28 ft | 20 kts | 329° |
| 2026-05-04 20:36 | 40.64299 | -73.77641 | 29 ft | 21 kts | 330° |
| 2026-05-04 20:37 | 40.64376 | -73.77716 | 28 ft | 8 kts | 299° |
| 2026-05-04 20:37 | 40.64370 | -73.77760 | 28 ft | 5 kts | 248° |
| 2026-05-04 20:37 | 40.64357 | -73.77808 | 27 ft | 6 kts | 252° |
| 2026-05-04 20:37 | 40.64355 | -73.77821 | 28 ft | 1 kts | 253° |
| 2026-05-04 20:38 | 40.64351 | -73.77835 | 28 ft | 3 kts | 252° |
| 2026-05-04 20:38 | 40.64349 | -73.77843 | 28 ft | 0 kts | 251° |